»·PEaware :: SWA645 KSLC-KASE

SWA645 :: KSLC-KASE

FLIGHT INFORMATION

Flight Status: Arrived
Operator:
Southwest Airlines
More flights by this operator :: More flights under this callsign
Pilot: Anonymous 17611 (17611)
Aircraft: BOEING 737-800
(B738)
More flights by this aircraft type
Origin: KSLC Salt Lake City Intl
United States
Destination: KASE Aspen-Pitkin Co/Sardy
United States
More flights between these airports :: More routes between these airports
Route: +LEETZ6 EKR TRUEL DBL
File this flight plan on PilotEdge
Remarks:
Altitude:
(Current/Filed)
34,000ft
Speed:
(Current/Filed)
455kts
Departed: 12-May-18 01:20 PM
Arrived: 12-May-18 02:17 PM
Distance/Time
Traveled:
253nm/0:56
Distance/Time
To Go:
Arrived

Flight Plot

Page will automatically refresh every two minutes.

Flight plan parsing failed; only flown route is shown


Map Options




Map Legend


Flown Route
Filed Route
Departure Airport
Arrival Airport
Navaid (VOR, NDB)
Fix

Horizontal Profiles

Position Reports

Time Latitude Longitude Heading Altitude Ground
Speed
12-May-18 12:52 40.788529 -111.980852 282 4223ft 0kts
12-May-18 12:53 40.788529 -111.980852 282 4223ft 0kts
12-May-18 12:54 40.788529 -111.980852 282 4223ft 0kts
12-May-18 12:55 40.788529 -111.980852 282 4223ft 0kts
12-May-18 12:56 40.788529 -111.980852 282 4223ft 0kts
12-May-18 12:57 40.788529 -111.980852 282 4223ft 0kts
12-May-18 12:58 40.788529 -111.980852 282 4223ft 0kts
12-May-18 12:59 40.788529 -111.980852 282 4223ft 0kts
12-May-18 13:00 40.788529 -111.980852 282 4223ft 0kts
12-May-18 13:01 40.788529 -111.980852 282 4223ft 0kts
12-May-18 13:02 40.788529 -111.980852 282 4223ft 0kts
12-May-18 13:03 40.788529 -111.980852 282 4223ft 0kts
12-May-18 13:04 40.788529 -111.980852 282 4223ft 0kts
12-May-18 13:05 40.788529 -111.980852 282 4223ft 0kts
12-May-18 13:06 40.788529 -111.980852 282 4223ft 0kts
12-May-18 13:07 40.788529 -111.980852 282 4223ft 0kts
12-May-18 13:08 40.788502 -111.980686 281 4223ft 2kts
12-May-18 13:09 40.788094 -111.980237 6 4224ft 1kts
12-May-18 13:10 40.787835 -111.980298 9 4224ft 0kts
12-May-18 13:11 40.787762 -111.980314 10 4225ft 0kts
12-May-18 13:12 40.787896 -111.980281 10 4224ft 1kts
12-May-18 13:13 40.788750 -111.980028 19 4223ft 2kts
12-May-18 13:14 40.789331 -111.979537 35 4223ft 6kts
12-May-18 13:15 40.791552 -111.977276 354 4222ft 16kts
12-May-18 13:16 40.797888 -111.978029 352 4223ft 26kts
12-May-18 13:17 40.804359 -111.978808 357 4228ft 22kts
12-May-18 13:18 40.807302 -111.978631 57 4227ft 0kts
12-May-18 13:19 40.807355 -111.977659 108 4227ft 11kts
12-May-18 13:20 40.789463 -111.974815 176 4224ft 164kts
12-May-18 13:21 40.743232 -111.992500 258 5643ft 227kts
12-May-18 13:22 40.756214 -112.073775 308 8201ft 253kts
12-May-18 13:23 40.807048 -112.136931 311 9936ft 271kts
12-May-18 13:24 40.859829 -112.202089 311 10688ft 282kts
12-May-18 13:25 40.932683 -112.243091 355 13082ft 312kts
12-May-18 13:26 41.013062 -112.213866 69 15080ft 328kts
12-May-18 13:27 41.031270 -112.097328 100 17700ft 323kts
12-May-18 13:28 41.002799 -111.988489 120 20095ft 322kts
12-May-18 13:29 40.960841 -111.884323 131 22253ft 329kts
12-May-18 13:30 40.913398 -111.778265 130 23961ft 339kts
12-May-18 13:31 40.865309 -111.669577 131 25904ft 350kts
12-May-18 13:32 40.824953 -111.547495 117 27195ft 393kts
12-May-18 13:33 40.793404 -111.403819 117 28498ft 417kts
12-May-18 13:34 40.761180 -111.260187 118 30315ft 420kts
12-May-18 13:35 40.728096 -111.113942 119 32132ft 418kts
12-May-18 13:36 40.694666 -110.967689 118 33534ft 422kts
12-May-18 13:37 40.659778 -110.816988 117 33943ft 449kts
12-May-18 13:38 40.622176 -110.655137 117 33927ft 466kts
12-May-18 13:39 40.584269 -110.492374 117 33908ft 467kts
12-May-18 13:40 40.546483 -110.331410 117 33881ft 466kts
12-May-18 13:41 40.512794 -110.166543 114 33854ft 472kts
12-May-18 13:42 40.481518 -109.999421 114 33854ft 472kts
12-May-18 13:43 40.450035 -109.833414 114 33854ft 471kts
12-May-18 13:44 40.418107 -109.666856 114 33854ft 471kts
12-May-18 13:45 40.385992 -109.500896 114 33855ft 471kts
12-May-18 13:46 40.353771 -109.335885 115 33854ft 469kts
12-May-18 13:47 40.323915 -109.184124 114 33848ft 470kts
12-May-18 13:48 40.290841 -109.017819 113 33850ft 476kts
12-May-18 13:49 40.259997 -108.863716 113 33851ft 478kts
12-May-18 13:50 40.229288 -108.711307 113 33851ft 477kts
12-May-18 13:51 40.195586 -108.545249 113 33876ft 475kts
12-May-18 13:52 40.161527 -108.379033 113 33899ft 475kts
12-May-18 13:53 40.128433 -108.218625 114 33893ft 473kts
12-May-18 13:54 40.093990 -108.052999 114 33891ft 472kts
12-May-18 13:55 40.050888 -107.894840 135 33917ft 447kts
12-May-18 13:56 39.975009 -107.768817 137 33894ft 442kts
12-May-18 13:57 39.899311 -107.644576 137 32396ft 441kts
12-May-18 13:58 39.823614 -107.520095 136 29318ft 447kts
12-May-18 13:59 39.747094 -107.393985 135 26239ft 454kts
12-May-18 14:00 39.674800 -107.274620 134 23308ft 450kts
12-May-18 14:01 39.650535 -107.113690 98 20114ft 463kts
12-May-18 14:02 39.645513 -106.962351 98 17166ft 372kts
12-May-18 14:03 39.639048 -106.835176 98 15052ft 344kts
12-May-18 14:04 39.576487 -106.774472 200 13972ft 328kts
12-May-18 14:05 39.531550 -106.873788 248 13967ft 331kts
12-May-18 14:06 39.503153 -106.984447 230 13940ft 312kts
12-May-18 14:07 39.439167 -107.011010 172 13973ft 304kts
12-May-18 14:08 39.385268 -106.932533 88 14040ft 348kts
12-May-18 14:09 39.449968 -106.868267 9 13944ft 282kts
12-May-18 14:10 39.519420 -106.881960 290 14018ft 264kts
12-May-18 14:11 39.506769 -106.963312 210 13995ft 222kts
12-May-18 14:12 39.447834 -106.974677 165 14004ft 222kts
12-May-18 14:13 39.389224 -106.948177 163 12932ft 220kts
12-May-18 14:14 39.336752 -106.923090 163 12263ft 190kts
12-May-18 14:15 39.288901 -106.900224 161 9714ft 182kts
12-May-18 14:16 39.245362 -106.879500 162 8117ft 157kts
12-May-18 14:17 39.218759 -106.866042 86 7844ft 7kts
12-May-18 14:18 39.219243 -106.864875 74 7844ft 3kts
12-May-18 14:19 39.219258 -106.864803 75 7844ft 0kts

Navigation Log

Ident Type
Flight plan parsing failed, navigation log unavailable